sensor_id;sensor_type;location;lat;lon;timestamp;P1;durP1;ratioP1;P2;durP2;ratioP2
20695;SDS011;10507;52.754;13.040;2023-08-06T00:02:07;10.70;;;5.68;;
20695;SDS011;10507;52.754;13.040;2023-08-06T00:04:35;9.93;;;5.55;;
20695;SDS011;10507;52.754;13.040;2023-08-06T00:07:04;6.00;;;4.93;;
20695;SDS011;10507;52.754;13.040;2023-08-06T00:09:32;8.00;;;5.40;;
20695;SDS011;10507;52.754;13.040;2023-08-06T00:12:00;9.60;;;5.72;;
20695;SDS011;10507;52.754;13.040;2023-08-06T00:14:28;10.13;;;5.75;;
20695;SDS011;10507;52.754;13.040;2023-08-06T00:16:59;10.13;;;5.80;;
20695;SDS011;10507;52.754;13.040;2023-08-06T00:19:27;10.73;;;5.72;;
20695;SDS011;10507;52.754;13.040;2023-08-06T00:21:54;8.52;;;5.18;;
20695;SDS011;10507;52.754;13.040;2023-08-06T00:24:24;8.23;;;5.45;;
20695;SDS011;10507;52.754;13.040;2023-08-06T00:26:51;8.80;;;5.68;;
20695;SDS011;10507;52.754;13.040;2023-08-06T00:29:19;13.13;;;5.25;;
20695;SDS011;10507;52.754;13.040;2023-08-06T00:31:47;7.15;;;5.47;;
20695;SDS011;10507;52.754;13.040;2023-08-06T00:34:15;8.73;;;5.57;;
20695;SDS011;10507;52.754;13.040;2023-08-06T00:36:43;8.88;;;5.53;;
20695;SDS011;10507;52.754;13.040;2023-08-06T00:39:11;8.55;;;5.82;;
20695;SDS011;10507;52.754;13.040;2023-08-06T00:41:40;7.57;;;5.28;;
20695;SDS011;10507;52.754;13.040;2023-08-06T00:44:08;10.52;;;5.75;;
20695;SDS011;10507;52.754;13.040;2023-08-06T00:46:36;8.93;;;5.38;;
20695;SDS011;10507;52.754;13.040;2023-08-06T00:49:04;9.48;;;5.30;;
20695;SDS011;10507;52.754;13.040;2023-08-06T00:51:33;6.97;;;5.40;;
20695;SDS011;10507;52.754;13.040;2023-08-06T00:54:02;8.45;;;5.30;;
20695;SDS011;10507;52.754;13.040;2023-08-06T00:56:30;10.88;;;5.28;;
20695;SDS011;10507;52.754;13.040;2023-08-06T00:59:00;7.43;;;5.85;;
20695;SDS011;10507;52.754;13.040;2023-08-06T01:01:28;10.32;;;6.10;;
20695;SDS011;10507;52.754;13.040;2023-08-06T01:03:56;7.95;;;5.32;;
20695;SDS011;10507;52.754;13.040;2023-08-06T01:06:29;6.97;;;5.57;;
20695;SDS011;10507;52.754;13.040;2023-08-06T01:09:08;12.63;;;5.57;;
20695;SDS011;10507;52.754;13.040;2023-08-06T01:11:48;12.05;;;6.78;;
20695;SDS011;10507;52.754;13.040;2023-08-06T01:14:29;9.10;;;6.18;;
20695;SDS011;10507;52.754;13.040;2023-08-06T01:17:02;10.63;;;6.10;;
20695;SDS011;10507;52.754;13.040;2023-08-06T01:19:36;10.77;;;5.70;;
20695;SDS011;10507;52.754;13.040;2023-08-06T01:22:06;9.95;;;6.07;;
20695;SDS011;10507;52.754;13.040;2023-08-06T01:24:33;9.15;;;6.32;;
20695;SDS011;10507;52.754;13.040;2023-08-06T01:27:03;9.55;;;6.75;;
20695;SDS011;10507;52.754;13.040;2023-08-06T01:29:35;9.18;;;5.95;;
20695;SDS011;10507;52.754;13.040;2023-08-06T01:32:10;15.80;;;7.30;;
20695;SDS011;10507;52.754;13.040;2023-08-06T01:34:40;10.25;;;6.22;;
20695;SDS011;10507;52.754;13.040;2023-08-06T01:37:12;8.85;;;6.15;;
20695;SDS011;10507;52.754;13.040;2023-08-06T01:39:42;10.48;;;6.10;;
20695;SDS011;10507;52.754;13.040;2023-08-06T01:42:10;11.00;;;6.90;;
20695;SDS011;10507;52.754;13.040;2023-08-06T01:44:38;10.88;;;6.38;;
20695;SDS011;10507;52.754;13.040;2023-08-06T01:47:05;13.25;;;6.63;;
20695;SDS011;10507;52.754;13.040;2023-08-06T01:49:33;12.32;;;7.00;;
20695;SDS011;10507;52.754;13.040;2023-08-06T01:52:01;10.55;;;7.05;;
20695;SDS011;10507;52.754;13.040;2023-08-06T01:54:30;9.75;;;6.75;;
20695;SDS011;10507;52.754;13.040;2023-08-06T01:56:58;12.10;;;6.65;;
20695;SDS011;10507;52.754;13.040;2023-08-06T01:59:26;12.55;;;6.88;;
20695;SDS011;10507;52.754;13.040;2023-08-06T02:01:54;9.43;;;6.55;;
20695;SDS011;10507;52.754;13.040;2023-08-06T02:04:22;10.13;;;6.85;;
20695;SDS011;10507;52.754;13.040;2023-08-06T02:06:50;10.88;;;6.88;;
20695;SDS011;10507;52.754;13.040;2023-08-06T02:09:17;10.13;;;7.18;;
20695;SDS011;10507;52.754;13.040;2023-08-06T02:11:47;8.65;;;6.93;;
20695;SDS011;10507;52.754;13.040;2023-08-06T02:14:15;11.05;;;7.13;;
20695;SDS011;10507;52.754;13.040;2023-08-06T02:16:42;11.40;;;6.85;;
20695;SDS011;10507;52.754;13.040;2023-08-06T02:19:10;9.35;;;6.40;;
20695;SDS011;10507;52.754;13.040;2023-08-06T02:21:38;9.63;;;6.93;;
20695;SDS011;10507;52.754;13.040;2023-08-06T02:24:06;9.27;;;6.53;;
20695;SDS011;10507;52.754;13.040;2023-08-06T02:26:34;10.65;;;6.88;;
20695;SDS011;10507;52.754;13.040;2023-08-06T02:29:03;11.10;;;6.80;;
20695;SDS011;10507;52.754;13.040;2023-08-06T02:31:31;10.75;;;7.22;;
20695;SDS011;10507;52.754;13.040;2023-08-06T02:33:59;10.52;;;6.38;;
20695;SDS011;10507;52.754;13.040;2023-08-06T02:36:27;11.38;;;7.47;;
20695;SDS011;10507;52.754;13.040;2023-08-06T02:38:55;9.02;;;6.75;;
20695;SDS011;10507;52.754;13.040;2023-08-06T02:41:23;12.70;;;7.53;;
20695;SDS011;10507;52.754;13.040;2023-08-06T02:43:52;10.15;;;7.35;;
20695;SDS011;10507;52.754;13.040;2023-08-06T02:46:21;10.65;;;8.30;;
20695;SDS011;10507;52.754;13.040;2023-08-06T02:48:49;10.32;;;7.82;;
20695;SDS011;10507;52.754;13.040;2023-08-06T02:51:18;10.90;;;7.43;;
20695;SDS011;10507;52.754;13.040;2023-08-06T02:53:47;9.95;;;7.53;;
20695;SDS011;10507;52.754;13.040;2023-08-06T02:56:15;8.90;;;7.63;;
20695;SDS011;10507;52.754;13.040;2023-08-06T02:58:43;9.57;;;7.20;;
20695;SDS011;10507;52.754;13.040;2023-08-06T03:01:11;13.18;;;8.13;;
20695;SDS011;10507;52.754;13.040;2023-08-06T03:03:41;13.20;;;7.53;;
20695;SDS011;10507;52.754;13.040;2023-08-06T03:06:09;10.00;;;7.32;;
20695;SDS011;10507;52.754;13.040;2023-08-06T03:08:37;12.15;;;6.93;;
20695;SDS011;10507;52.754;13.040;2023-08-06T03:11:05;9.57;;;6.70;;
20695;SDS011;10507;52.754;13.040;2023-08-06T03:13:33;10.15;;;7.65;;
20695;SDS011;10507;52.754;13.040;2023-08-06T03:16:01;12.82;;;8.38;;
20695;SDS011;10507;52.754;13.040;2023-08-06T03:18:28;12.52;;;8.13;;
20695;SDS011;10507;52.754;13.040;2023-08-06T03:20:58;13.65;;;8.57;;
20695;SDS011;10507;52.754;13.040;2023-08-06T03:23:25;12.80;;;8.02;;
20695;SDS011;10507;52.754;13.040;2023-08-06T03:25:53;13.82;;;8.57;;
20695;SDS011;10507;52.754;13.040;2023-08-06T03:28:21;11.85;;;8.00;;
20695;SDS011;10507;52.754;13.040;2023-08-06T03:30:58;13.57;;;8.52;;
20695;SDS011;10507;52.754;13.040;2023-08-06T03:33:26;13.48;;;8.32;;
20695;SDS011;10507;52.754;13.040;2023-08-06T03:35:54;9.90;;;7.93;;
20695;SDS011;10507;52.754;13.040;2023-08-06T03:38:24;9.95;;;7.60;;
20695;SDS011;10507;52.754;13.040;2023-08-06T03:40:51;13.23;;;9.02;;
20695;SDS011;10507;52.754;13.040;2023-08-06T03:43:19;10.88;;;7.90;;
20695;SDS011;10507;52.754;13.040;2023-08-06T03:45:47;10.27;;;7.72;;
20695;SDS011;10507;52.754;13.040;2023-08-06T03:48:15;10.10;;;8.13;;
20695;SDS011;10507;52.754;13.040;2023-08-06T03:50:43;13.85;;;8.35;;
20695;SDS011;10507;52.754;13.040;2023-08-06T03:53:11;14.38;;;8.88;;
20695;SDS011;10507;52.754;13.040;2023-08-06T03:55:40;11.80;;;7.70;;
20695;SDS011;10507;52.754;13.040;2023-08-06T03:58:07;9.40;;;7.75;;
20695;SDS011;10507;52.754;13.040;2023-08-06T04:00:35;10.57;;;8.13;;
20695;SDS011;10507;52.754;13.040;2023-08-06T04:03:03;10.23;;;8.07;;
20695;SDS011;10507;52.754;13.040;2023-08-06T04:05:31;11.27;;;7.93;;
20695;SDS011;10507;52.754;13.040;2023-08-06T04:07:59;11.00;;;8.60;;
20695;SDS011;10507;52.754;13.040;2023-08-06T04:10:27;12.18;;;9.02;;
20695;SDS011;10507;52.754;13.040;2023-08-06T04:12:56;11.95;;;9.07;;
20695;SDS011;10507;52.754;13.040;2023-08-06T04:15:24;12.23;;;8.82;;
20695;SDS011;10507;52.754;13.040;2023-08-06T04:17:52;12.25;;;8.38;;
20695;SDS011;10507;52.754;13.040;2023-08-06T04:20:19;13.82;;;8.55;;
20695;SDS011;10507;52.754;13.040;2023-08-06T04:22:47;12.18;;;9.43;;
20695;SDS011;10507;52.754;13.040;2023-08-06T04:25:15;10.93;;;9.07;;
20695;SDS011;10507;52.754;13.040;2023-08-06T04:27:47;11.70;;;8.25;;
20695;SDS011;10507;52.754;13.040;2023-08-06T04:30:16;10.57;;;8.30;;
20695;SDS011;10507;52.754;13.040;2023-08-06T04:32:44;15.57;;;8.63;;
20695;SDS011;10507;52.754;13.040;2023-08-06T04:35:12;13.43;;;9.18;;
20695;SDS011;10507;52.754;13.040;2023-08-06T04:37:40;11.18;;;8.98;;
20695;SDS011;10507;52.754;13.040;2023-08-06T04:40:08;9.93;;;8.48;;
20695;SDS011;10507;52.754;13.040;2023-08-06T04:42:36;11.23;;;8.23;;
20695;SDS011;10507;52.754;13.040;2023-08-06T04:45:05;11.38;;;8.73;;
20695;SDS011;10507;52.754;13.040;2023-08-06T04:47:35;11.52;;;9.57;;
20695;SDS011;10507;52.754;13.040;2023-08-06T04:50:03;10.32;;;8.52;;
20695;SDS011;10507;52.754;13.040;2023-08-06T04:52:31;12.45;;;9.52;;
20695;SDS011;10507;52.754;13.040;2023-08-06T04:54:58;12.88;;;9.68;;
20695;SDS011;10507;52.754;13.040;2023-08-06T04:57:26;11.93;;;9.50;;
20695;SDS011;10507;52.754;13.040;2023-08-06T04:59:54;13.10;;;10.02;;
20695;SDS011;10507;52.754;13.040;2023-08-06T05:02:22;12.77;;;10.70;;
20695;SDS011;10507;52.754;13.040;2023-08-06T05:04:51;11.73;;;9.43;;
20695;SDS011;10507;52.754;13.040;2023-08-06T05:07:19;12.35;;;9.75;;
20695;SDS011;10507;52.754;13.040;2023-08-06T05:09:47;12.35;;;9.85;;
20695;SDS011;10507;52.754;13.040;2023-08-06T05:12:14;15.35;;;9.70;;
20695;SDS011;10507;52.754;13.040;2023-08-06T05:14:42;13.32;;;9.88;;
20695;SDS011;10507;52.754;13.040;2023-08-06T05:17:10;11.05;;;9.13;;
20695;SDS011;10507;52.754;13.040;2023-08-06T05:19:38;12.15;;;10.02;;
20695;SDS011;10507;52.754;13.040;2023-08-06T05:22:07;9.48;;;8.45;;
20695;SDS011;10507;52.754;13.040;2023-08-06T05:24:35;11.35;;;8.73;;
20695;SDS011;10507;52.754;13.040;2023-08-06T05:27:03;11.73;;;9.75;;
20695;SDS011;10507;52.754;13.040;2023-08-06T05:29:31;12.80;;;9.63;;
20695;SDS011;10507;52.754;13.040;2023-08-06T05:31:59;11.57;;;9.52;;
20695;SDS011;10507;52.754;13.040;2023-08-06T05:34:27;12.73;;;9.32;;
20695;SDS011;10507;52.754;13.040;2023-08-06T05:36:55;12.20;;;10.07;;
20695;SDS011;10507;52.754;13.040;2023-08-06T05:39:24;11.20;;;9.40;;
20695;SDS011;10507;52.754;13.040;2023-08-06T05:41:52;13.82;;;10.30;;
20695;SDS011;10507;52.754;13.040;2023-08-06T05:44:21;13.05;;;9.90;;
20695;SDS011;10507;52.754;13.040;2023-08-06T05:46:50;12.30;;;9.95;;
20695;SDS011;10507;52.754;13.040;2023-08-06T05:49:19;11.93;;;9.93;;
20695;SDS011;10507;52.754;13.040;2023-08-06T05:51:47;13.68;;;10.60;;
20695;SDS011;10507;52.754;13.040;2023-08-06T05:54:16;12.98;;;11.43;;
20695;SDS011;10507;52.754;13.040;2023-08-06T05:56:46;15.68;;;10.82;;
20695;SDS011;10507;52.754;13.040;2023-08-06T05:59:14;11.82;;;10.27;;
20695;SDS011;10507;52.754;13.040;2023-08-06T06:01:42;11.63;;;9.73;;
20695;SDS011;10507;52.754;13.040;2023-08-06T06:04:09;11.68;;;10.38;;
20695;SDS011;10507;52.754;13.040;2023-08-06T06:06:37;11.75;;;9.95;;
20695;SDS011;10507;52.754;13.040;2023-08-06T06:09:05;15.38;;;11.30;;
20695;SDS011;10507;52.754;13.040;2023-08-06T06:11:33;11.68;;;9.98;;
20695;SDS011;10507;52.754;13.040;2023-08-06T06:14:02;12.02;;;9.98;;
20695;SDS011;10507;52.754;13.040;2023-08-06T06:16:30;13.48;;;10.45;;
20695;SDS011;10507;52.754;13.040;2023-08-06T06:18:58;14.10;;;9.98;;
20695;SDS011;10507;52.754;13.040;2023-08-06T06:21:26;12.43;;;9.57;;
20695;SDS011;10507;52.754;13.040;2023-08-06T06:23:54;12.35;;;10.18;;
20695;SDS011;10507;52.754;13.040;2023-08-06T06:26:22;12.43;;;10.00;;
20695;SDS011;10507;52.754;13.040;2023-08-06T06:28:50;12.80;;;10.77;;
20695;SDS011;10507;52.754;13.040;2023-08-06T06:31:19;12.18;;;9.32;;
20695;SDS011;10507;52.754;13.040;2023-08-06T06:33:47;17.38;;;10.43;;
20695;SDS011;10507;52.754;13.040;2023-08-06T06:36:15;13.57;;;10.48;;
20695;SDS011;10507;52.754;13.040;2023-08-06T06:38:43;13.00;;;9.57;;
20695;SDS011;10507;52.754;13.040;2023-08-06T06:41:11;13.15;;;10.38;;
20695;SDS011;10507;52.754;13.040;2023-08-06T06:43:39;13.07;;;10.13;;
20695;SDS011;10507;52.754;13.040;2023-08-06T06:46:06;10.73;;;9.60;;
20695;SDS011;10507;52.754;13.040;2023-08-06T06:48:36;11.25;;;9.85;;
20695;SDS011;10507;52.754;13.040;2023-08-06T06:51:03;13.20;;;10.00;;
20695;SDS011;10507;52.754;13.040;2023-08-06T06:53:31;12.98;;;10.15;;
20695;SDS011;10507;52.754;13.040;2023-08-06T06:56:01;13.23;;;10.10;;
20695;SDS011;10507;52.754;13.040;2023-08-06T06:58:30;11.00;;;9.88;;
20695;SDS011;10507;52.754;13.040;2023-08-06T07:00:58;13.13;;;10.55;;
20695;SDS011;10507;52.754;13.040;2023-08-06T07:03:26;13.57;;;11.13;;
20695;SDS011;10507;52.754;13.040;2023-08-06T07:05:58;13.07;;;11.68;;
20695;SDS011;10507;52.754;13.040;2023-08-06T07:08:26;12.40;;;10.75;;
20695;SDS011;10507;52.754;13.040;2023-08-06T07:10:59;15.60;;;11.73;;
20695;SDS011;10507;52.754;13.040;2023-08-06T07:13:28;14.23;;;11.82;;
20695;SDS011;10507;52.754;13.040;2023-08-06T07:15:56;12.65;;;10.75;;
20695;SDS011;10507;52.754;13.040;2023-08-06T07:18:25;14.38;;;11.57;;
20695;SDS011;10507;52.754;13.040;2023-08-06T07:20:54;13.82;;;12.07;;
20695;SDS011;10507;52.754;13.040;2023-08-06T07:23:25;13.05;;;11.18;;
20695;SDS011;10507;52.754;13.040;2023-08-06T07:25:53;13.88;;;11.15;;
20695;SDS011;10507;52.754;13.040;2023-08-06T07:28:21;14.45;;;11.20;;
20695;SDS011;10507;52.754;13.040;2023-08-06T07:30:49;14.35;;;12.45;;
20695;SDS011;10507;52.754;13.040;2023-08-06T07:33:17;13.82;;;12.27;;
20695;SDS011;10507;52.754;13.040;2023-08-06T07:35:45;13.50;;;12.05;;
20695;SDS011;10507;52.754;13.040;2023-08-06T07:38:17;14.63;;;13.00;;
20695;SDS011;10507;52.754;13.040;2023-08-06T07:40:46;14.40;;;11.95;;
20695;SDS011;10507;52.754;13.040;2023-08-06T07:43:14;15.48;;;11.93;;
20695;SDS011;10507;52.754;13.040;2023-08-06T07:45:41;14.85;;;11.73;;
20695;SDS011;10507;52.754;13.040;2023-08-06T07:48:09;14.25;;;12.70;;
20695;SDS011;10507;52.754;13.040;2023-08-06T07:50:37;14.85;;;11.82;;
20695;SDS011;10507;52.754;13.040;2023-08-06T07:53:05;14.02;;;12.02;;
20695;SDS011;10507;52.754;13.040;2023-08-06T07:55:32;14.35;;;11.85;;
20695;SDS011;10507;52.754;13.040;2023-08-06T07:58:02;13.93;;;10.95;;
20695;SDS011;10507;52.754;13.040;2023-08-06T08:00:33;15.90;;;12.77;;
20695;SDS011;10507;52.754;13.040;2023-08-06T08:03:01;17.15;;;13.05;;
20695;SDS011;10507;52.754;13.040;2023-08-06T08:05:30;16.33;;;12.15;;
20695;SDS011;10507;52.754;13.040;2023-08-06T08:07:58;15.68;;;12.80;;
20695;SDS011;10507;52.754;13.040;2023-08-06T08:10:25;18.85;;;13.20;;
20695;SDS011;10507;52.754;13.040;2023-08-06T08:12:53;14.00;;;12.07;;
20695;SDS011;10507;52.754;13.040;2023-08-06T08:15:22;14.73;;;12.25;;
20695;SDS011;10507;52.754;13.040;2023-08-06T08:17:52;13.77;;;12.00;;
20695;SDS011;10507;52.754;13.040;2023-08-06T08:20:20;14.48;;;12.25;;
20695;SDS011;10507;52.754;13.040;2023-08-06T08:22:48;14.13;;;11.63;;
20695;SDS011;10507;52.754;13.040;2023-08-06T08:25:16;15.10;;;12.25;;
20695;SDS011;10507;52.754;13.040;2023-08-06T08:27:44;12.95;;;10.63;;
20695;SDS011;10507;52.754;13.040;2023-08-06T08:30:11;13.23;;;11.27;;
20695;SDS011;10507;52.754;13.040;2023-08-06T08:32:41;14.00;;;11.27;;
20695;SDS011;10507;52.754;13.040;2023-08-06T08:35:09;12.30;;;10.43;;
20695;SDS011;10507;52.754;13.040;2023-08-06T08:37:38;12.88;;;10.10;;
20695;SDS011;10507;52.754;13.040;2023-08-06T08:40:07;11.43;;;10.05;;
20695;SDS011;10507;52.754;13.040;2023-08-06T08:42:36;12.85;;;9.90;;
20695;SDS011;10507;52.754;13.040;2023-08-06T08:45:04;13.80;;;10.30;;
20695;SDS011;10507;52.754;13.040;2023-08-06T08:47:35;10.98;;;9.57;;
20695;SDS011;10507;52.754;13.040;2023-08-06T08:50:06;14.27;;;10.23;;
20695;SDS011;10507;52.754;13.040;2023-08-06T08:52:35;11.32;;;9.82;;
20695;SDS011;10507;52.754;13.040;2023-08-06T08:55:04;13.38;;;10.27;;
20695;SDS011;10507;52.754;13.040;2023-08-06T08:57:34;14.20;;;10.27;;
20695;SDS011;10507;52.754;13.040;2023-08-06T09:00:02;12.40;;;10.10;;
20695;SDS011;10507;52.754;13.040;2023-08-06T09:02:30;10.57;;;9.45;;
20695;SDS011;10507;52.754;13.040;2023-08-06T09:05:00;11.68;;;10.43;;
20695;SDS011;10507;52.754;13.040;2023-08-06T09:07:35;11.82;;;9.82;;
20695;SDS011;10507;52.754;13.040;2023-08-06T09:10:10;12.20;;;9.30;;
20695;SDS011;10507;52.754;13.040;2023-08-06T09:12:39;11.30;;;9.23;;
20695;SDS011;10507;52.754;13.040;2023-08-06T09:15:09;12.75;;;9.95;;
20695;SDS011;10507;52.754;13.040;2023-08-06T09:17:37;11.05;;;9.45;;
20695;SDS011;10507;52.754;13.040;2023-08-06T09:20:11;12.75;;;9.45;;
20695;SDS011;10507;52.754;13.040;2023-08-06T09:22:41;10.82;;;9.57;;
20695;SDS011;10507;52.754;13.040;2023-08-06T09:25:10;13.23;;;9.43;;
20695;SDS011;10507;52.754;13.040;2023-08-06T09:27:40;13.82;;;10.45;;
20695;SDS011;10507;52.754;13.040;2023-08-06T09:30:08;11.70;;;10.07;;
20695;SDS011;10507;52.754;13.040;2023-08-06T09:32:44;11.93;;;9.65;;
20695;SDS011;10507;52.754;13.040;2023-08-06T09:35:15;12.20;;;10.05;;
20695;SDS011;10507;52.754;13.040;2023-08-06T09:37:45;11.77;;;10.43;;
20695;SDS011;10507;52.754;13.040;2023-08-06T09:40:27;12.23;;;10.43;;
20695;SDS011;10507;52.754;13.040;2023-08-06T09:42:56;10.07;;;8.68;;
20695;SDS011;10507;52.754;13.040;2023-08-06T09:45:28;12.43;;;9.98;;
20695;SDS011;10507;52.754;13.040;2023-08-06T09:47:59;12.32;;;9.48;;
20695;SDS011;10507;52.754;13.040;2023-08-06T09:50:28;11.77;;;9.43;;
20695;SDS011;10507;52.754;13.040;2023-08-06T09:52:59;12.55;;;9.60;;
20695;SDS011;10507;52.754;13.040;2023-08-06T09:55:27;11.75;;;9.88;;
20695;SDS011;10507;52.754;13.040;2023-08-06T09:57:55;12.05;;;9.55;;
20695;SDS011;10507;52.754;13.040;2023-08-06T10:00:23;10.20;;;8.98;;
20695;SDS011;10507;52.754;13.040;2023-08-06T10:02:53;11.80;;;9.40;;
20695;SDS011;10507;52.754;13.040;2023-08-06T10:05:22;12.27;;;9.98;;
20695;SDS011;10507;52.754;13.040;2023-08-06T10:07:51;11.82;;;9.60;;
20695;SDS011;10507;52.754;13.040;2023-08-06T10:10:21;13.38;;;10.52;;
20695;SDS011;10507;52.754;13.040;2023-08-06T10:12:51;10.77;;;9.50;;
20695;SDS011;10507;52.754;13.040;2023-08-06T10:15:22;11.77;;;9.90;;
20695;SDS011;10507;52.754;13.040;2023-08-06T10:17:52;12.02;;;10.55;;
20695;SDS011;10507;52.754;13.040;2023-08-06T10:20:24;13.35;;;10.20;;
20695;SDS011;10507;52.754;13.040;2023-08-06T10:23:01;10.57;;;9.45;;
20695;SDS011;10507;52.754;13.040;2023-08-06T10:25:32;12.60;;;10.27;;
20695;SDS011;10507;52.754;13.040;2023-08-06T10:28:01;11.27;;;9.73;;
20695;SDS011;10507;52.754;13.040;2023-08-06T10:30:38;11.70;;;10.50;;
20695;SDS011;10507;52.754;13.040;2023-08-06T10:33:09;13.50;;;10.38;;
20695;SDS011;10507;52.754;13.040;2023-08-06T10:35:37;11.13;;;9.48;;
20695;SDS011;10507;52.754;13.040;2023-08-06T10:38:10;11.07;;;8.93;;
20695;SDS011;10507;52.754;13.040;2023-08-06T10:40:41;11.30;;;9.52;;
20695;SDS011;10507;52.754;13.040;2023-08-06T10:43:24;10.52;;;9.05;;
20695;SDS011;10507;52.754;13.040;2023-08-06T10:45:53;11.52;;;10.18;;
20695;SDS011;10507;52.754;13.040;2023-08-06T10:48:30;10.98;;;8.82;;
20695;SDS011;10507;52.754;13.040;2023-08-06T10:51:00;10.00;;;8.77;;
20695;SDS011;10507;52.754;13.040;2023-08-06T10:53:29;9.73;;;8.68;;
20695;SDS011;10507;52.754;13.040;2023-08-06T10:56:01;11.90;;;8.40;;
20695;SDS011;10507;52.754;13.040;2023-08-06T10:58:33;11.23;;;8.45;;
20695;SDS011;10507;52.754;13.040;2023-08-06T11:01:01;10.45;;;8.60;;
20695;SDS011;10507;52.754;13.040;2023-08-06T11:03:53;11.40;;;8.85;;
20695;SDS011;10507;52.754;13.040;2023-08-06T11:06:44;9.93;;;8.90;;
20695;SDS011;10507;52.754;13.040;2023-08-06T11:09:20;9.35;;;8.00;;
20695;SDS011;10507;52.754;13.040;2023-08-06T11:11:49;10.02;;;7.95;;
20695;SDS011;10507;52.754;13.040;2023-08-06T11:14:18;10.98;;;8.63;;
20695;SDS011;10507;52.754;13.040;2023-08-06T11:16:45;11.15;;;8.88;;
20695;SDS011;10507;52.754;13.040;2023-08-06T11:19:14;9.00;;;7.80;;
20695;SDS011;10507;52.754;13.040;2023-08-06T11:21:42;9.20;;;7.97;;
20695;SDS011;10507;52.754;13.040;2023-08-06T11:24:10;11.00;;;8.63;;
20695;SDS011;10507;52.754;13.040;2023-08-06T11:26:38;10.05;;;7.55;;
20695;SDS011;10507;52.754;13.040;2023-08-06T11:29:07;11.57;;;7.93;;
20695;SDS011;10507;52.754;13.040;2023-08-06T11:31:35;9.52;;;8.35;;
20695;SDS011;10507;52.754;13.040;2023-08-06T11:34:03;9.15;;;8.07;;
20695;SDS011;10507;52.754;13.040;2023-08-06T11:36:31;10.75;;;8.38;;
20695;SDS011;10507;52.754;13.040;2023-08-06T11:39:00;9.23;;;8.30;;
20695;SDS011;10507;52.754;13.040;2023-08-06T11:41:29;8.07;;;6.35;;
20695;SDS011;10507;52.754;13.040;2023-08-06T11:43:57;9.40;;;8.00;;
20695;SDS011;10507;52.754;13.040;2023-08-06T11:46:26;9.40;;;7.63;;
20695;SDS011;10507;52.754;13.040;2023-08-06T11:48:55;8.48;;;7.47;;
20695;SDS011;10507;52.754;13.040;2023-08-06T11:51:24;8.27;;;7.18;;
20695;SDS011;10507;52.754;13.040;2023-08-06T11:53:54;8.85;;;7.07;;
20695;SDS011;10507;52.754;13.040;2023-08-06T11:56:23;9.23;;;7.05;;
20695;SDS011;10507;52.754;13.040;2023-08-06T11:58:52;10.48;;;7.43;;
20695;SDS011;10507;52.754;13.040;2023-08-06T12:01:22;13.05;;;8.57;;
20695;SDS011;10507;52.754;13.040;2023-08-06T12:03:52;9.32;;;7.97;;
20695;SDS011;10507;52.754;13.040;2023-08-06T12:06:20;9.60;;;8.10;;
20695;SDS011;10507;52.754;13.040;2023-08-06T12:08:47;9.55;;;8.35;;
20695;SDS011;10507;52.754;13.040;2023-08-06T12:11:17;10.05;;;8.48;;
20695;SDS011;10507;52.754;13.040;2023-08-06T12:13:45;9.88;;;7.70;;
20695;SDS011;10507;52.754;13.040;2023-08-06T12:16:12;12.15;;;7.45;;
20695;SDS011;10507;52.754;13.040;2023-08-06T12:18:40;10.77;;;8.23;;
20695;SDS011;10507;52.754;13.040;2023-08-06T12:21:10;11.95;;;8.32;;
20695;SDS011;10507;52.754;13.040;2023-08-06T12:23:37;9.35;;;8.07;;
20695;SDS011;10507;52.754;13.040;2023-08-06T12:26:05;8.35;;;7.20;;
20695;SDS011;10507;52.754;13.040;2023-08-06T12:28:33;9.90;;;6.82;;
20695;SDS011;10507;52.754;13.040;2023-08-06T12:31:01;10.65;;;7.78;;
20695;SDS011;10507;52.754;13.040;2023-08-06T12:33:29;8.40;;;7.50;;
20695;SDS011;10507;52.754;13.040;2023-08-06T12:35:57;10.23;;;8.13;;
20695;SDS011;10507;52.754;13.040;2023-08-06T12:38:26;10.48;;;7.65;;
20695;SDS011;10507;52.754;13.040;2023-08-06T12:40:55;11.30;;;7.97;;
20695;SDS011;10507;52.754;13.040;2023-08-06T12:43:22;8.93;;;6.93;;
20695;SDS011;10507;52.754;13.040;2023-08-06T12:45:50;7.68;;;5.97;;
20695;SDS011;10507;52.754;13.040;2023-08-06T12:48:18;9.10;;;5.72;;
20695;SDS011;10507;52.754;13.040;2023-08-06T12:50:46;6.88;;;5.93;;
20695;SDS011;10507;52.754;13.040;2023-08-06T12:53:15;6.78;;;4.82;;
20695;SDS011;10507;52.754;13.040;2023-08-06T12:55:45;7.05;;;5.53;;
20695;SDS011;10507;52.754;13.040;2023-08-06T12:58:12;8.43;;;5.75;;
20695;SDS011;10507;52.754;13.040;2023-08-06T13:00:40;9.40;;;5.57;;
20695;SDS011;10507;52.754;13.040;2023-08-06T13:03:08;5.75;;;4.25;;
20695;SDS011;10507;52.754;13.040;2023-08-06T13:05:36;6.25;;;4.47;;
20695;SDS011;10507;52.754;13.040;2023-08-06T13:08:04;6.50;;;4.15;;
20695;SDS011;10507;52.754;13.040;2023-08-06T13:10:32;6.47;;;4.28;;
20695;SDS011;10507;52.754;13.040;2023-08-06T13:13:01;8.68;;;4.82;;
20695;SDS011;10507;52.754;13.040;2023-08-06T13:15:30;6.53;;;4.40;;
20695;SDS011;10507;52.754;13.040;2023-08-06T13:17:58;6.10;;;4.70;;
20695;SDS011;10507;52.754;13.040;2023-08-06T13:20:25;7.72;;;5.75;;
20695;SDS011;10507;52.754;13.040;2023-08-06T13:22:54;7.45;;;4.60;;
20695;SDS011;10507;52.754;13.040;2023-08-06T13:25:22;7.28;;;4.35;;
20695;SDS011;10507;52.754;13.040;2023-08-06T13:27:50;4.82;;;4.25;;
20695;SDS011;10507;52.754;13.040;2023-08-06T13:30:19;6.85;;;4.38;;
20695;SDS011;10507;52.754;13.040;2023-08-06T13:32:49;6.82;;;4.47;;
20695;SDS011;10507;52.754;13.040;2023-08-06T13:35:17;5.22;;;4.30;;
20695;SDS011;10507;52.754;13.040;2023-08-06T13:37:45;6.80;;;4.40;;
20695;SDS011;10507;52.754;13.040;2023-08-06T13:40:14;6.68;;;3.88;;
20695;SDS011;10507;52.754;13.040;2023-08-06T13:42:42;6.60;;;3.75;;
20695;SDS011;10507;52.754;13.040;2023-08-06T13:45:10;6.63;;;3.78;;
20695;SDS011;10507;52.754;13.040;2023-08-06T13:47:39;4.47;;;3.30;;
20695;SDS011;10507;52.754;13.040;2023-08-06T13:50:07;4.63;;;3.60;;
20695;SDS011;10507;52.754;13.040;2023-08-06T13:52:35;7.00;;;3.95;;
20695;SDS011;10507;52.754;13.040;2023-08-06T13:55:03;6.28;;;3.10;;
20695;SDS011;10507;52.754;13.040;2023-08-06T13:57:31;5.20;;;3.38;;
20695;SDS011;10507;52.754;13.040;2023-08-06T13:59:59;4.50;;;3.22;;
20695;SDS011;10507;52.754;13.040;2023-08-06T14:02:28;4.53;;;3.25;;
20695;SDS011;10507;52.754;13.040;2023-08-06T14:04:57;4.28;;;2.97;;
20695;SDS011;10507;52.754;13.040;2023-08-06T14:07:25;5.68;;;3.38;;
20695;SDS011;10507;52.754;13.040;2023-08-06T14:09:53;4.38;;;2.80;;
20695;SDS011;10507;52.754;13.040;2023-08-06T14:12:24;4.18;;;3.08;;
20695;SDS011;10507;52.754;13.040;2023-08-06T14:14:52;5.05;;;2.75;;
20695;SDS011;10507;52.754;13.040;2023-08-06T14:17:20;4.38;;;2.75;;
20695;SDS011;10507;52.754;13.040;2023-08-06T14:19:48;4.10;;;2.80;;
20695;SDS011;10507;52.754;13.040;2023-08-06T14:22:17;3.75;;;2.63;;
20695;SDS011;10507;52.754;13.040;2023-08-06T14:24:46;5.10;;;2.80;;
20695;SDS011;10507;52.754;13.040;2023-08-06T14:27:14;5.75;;;2.70;;
20695;SDS011;10507;52.754;13.040;2023-08-06T14:29:42;6.65;;;2.83;;
20695;SDS011;10507;52.754;13.040;2023-08-06T14:32:10;5.57;;;3.45;;
20695;SDS011;10507;52.754;13.040;2023-08-06T14:34:37;5.38;;;3.50;;